Cimarron, Kansas
Current Conditions -  °F | °C
As of 12:52 AM on Saturday 29 Nov 2014 (Local Time) from KDDC Reporting Station
Clear Clear  
Wind Chill: 41°   Ceiling: Unl
Heat Index: 47°   Visibility: 10mi
Dew Point: 28°   Wind: 15mph
Humidity: 48%   Direction: 220°SW
Pressure: 29.68"   Gusts: NA
Location:  37.81°N, 100.35°W
Report Text: KDDC 290652Z AUTO 22013KT 10SM CLR 08/M02 A2968 RMK AO2 SLP035 T00831022
Loading
Personal Weather Stations






























Interactive Weather Map New forecast layout! Learn more

10-Day Weather Forecast

Advertisements
Track Severe Weather on mobile